Time;durP1;ratioP1;P1;durP2;ratioP2;P2;SDS_P1;SDS_P2;PMS_P1;PMS_P2;Temp;Humidity;BMP_temperature;BMP_pressure;BME280_temperature;BME280_humidity;BME280_pressure;Samples;Min_cycle;Max_cycle;Signal;HPM_P1;HPM_P2
2024/01/18 00:00:50;;;;;;;18.55;11.93;;;;;;;0.37;48.83;98858.47;5004435;28;20049;-74
2024/01/18 00:03:19;;;;;;;17.25;12.07;;;;;;;0.37;48.67;98861.16;4995148;28;20076;-74
2024/01/18 00:05:48;;;;;;;17.55;11.15;;;;;;;0.39;48.67;98855.69;5001191;28;20054;-74
2024/01/18 00:08:16;;;;;;;19.10;11.98;;;;;;;0.38;48.64;98843.19;4988839;28;20046;-74
2024/01/18 00:10:44;;;;;;;19.65;11.13;;;;;;;0.38;48.70;98844.06;5004256;28;20128;-73
2024/01/18 00:13:12;;;;;;;18.15;10.73;;;;;;;0.38;48.48;98843.19;4996899;28;20516;-73
2024/01/18 00:18:28;;;;;;;19.45;12.23;;;;;;;0.35;48.64;98842.44;5028030;28;20060;-70
2024/01/18 00:20:58;;;;;;;19.02;12.40;;;;;;;0.38;48.48;98840.50;5029405;28;20045;-71
2024/01/18 00:23:26;;;;;;;21.50;13.20;;;;;;;0.37;48.74;98847.72;5010192;28;20046;-70
2024/01/18 00:25:54;;;;;;;25.50;13.80;;;;;;;0.37;48.69;98853.09;5009936;28;20038;-70
2024/01/18 00:28:22;;;;;;;21.02;12.98;;;;;;;0.37;48.66;98845.03;5010116;28;20046;-70
2024/01/18 00:30:50;;;;;;;21.42;12.55;;;;;;;0.36;48.63;98851.38;5009961;28;20046;-70
2024/01/18 00:33:18;;;;;;;22.10;13.05;;;;;;;0.37;48.65;98861.16;5009882;28;20532;-70
2024/01/18 00:35:46;;;;;;;18.90;12.50;;;;;;;0.36;48.67;98870.22;5009959;28;20046;-70
2024/01/18 00:38:15;;;;;;;20.90;12.80;;;;;;;0.38;48.65;98887.09;5027700;28;20060;-70
2024/01/18 00:40:43;;;;;;;18.98;12.48;;;;;;;0.37;48.64;98882.69;5029698;28;20046;-70
2024/01/18 00:43:11;;;;;;;19.70;12.38;;;;;;;0.38;48.57;98883.56;5030375;28;20543;-70
2024/01/18 00:45:39;;;;;;;17.35;11.25;;;;;;;0.36;48.45;98895.28;5029214;28;20135;-70
2024/01/18 00:48:07;;;;;;;19.63;11.40;;;;;;;0.37;48.76;98893.47;5029382;28;20508;-70
2024/01/18 00:50:35;;;;;;;20.52;10.95;;;;;;;0.36;48.46;98906.06;5029262;28;20096;-70
2024/01/18 00:53:03;;;;;;;17.50;10.98;;;;;;;0.38;48.35;98905.09;5029619;28;20045;-70
2024/01/18 00:55:33;;;;;;;15.85;10.65;;;;;;;0.38;48.56;98897.00;5029601;28;20054;-70
2024/01/18 00:58:01;;;;;;;15.20;10.13;;;;;;;0.37;48.59;98898.84;5029948;28;20050;-70
2024/01/18 01:00:29;;;;;;;17.65;11.07;;;;;;;0.35;48.64;98912.41;5029393;28;20153;-70
2024/01/18 01:02:57;;;;;;;16.25;10.95;;;;;;;0.36;48.53;98924.03;5029379;28;20103;-70
2024/01/18 01:05:26;;;;;;;15.07;9.82;;;;;;;0.35;48.60;98928.56;5028751;28;20046;-70
2024/01/18 01:07:54;;;;;;;17.02;10.23;;;;;;;0.35;48.59;98920.47;5029175;28;20057;-70
2024/01/18 01:10:22;;;;;;;17.25;10.75;;;;;;;0.35;48.56;98931.25;5029443;28;20037;-70
2024/01/18 01:12:51;;;;;;;16.83;10.80;;;;;;;0.36;48.63;98926.72;5029334;28;20431;-70
2024/01/18 01:15:19;;;;;;;15.80;10.77;;;;;;;0.35;48.46;98920.47;5029414;28;20068;-70
2024/01/18 01:17:47;;;;;;;15.35;10.02;;;;;;;0.34;48.43;98924.19;5029077;28;20068;-70
2024/01/18 01:20:15;;;;;;;16.05;10.63;;;;;;;0.35;48.50;98930.41;5028837;28;20092;-70
2024/01/18 01:22:43;;;;;;;17.00;10.77;;;;;;;0.33;48.46;98927.84;5028840;28;20077;-70
2024/01/18 01:25:11;;;;;;;16.67;10.73;;;;;;;0.35;48.50;98919.66;5029200;28;20111;-70
2024/01/18 01:27:39;;;;;;;17.42;11.00;;;;;;;0.34;48.51;98928.69;5030635;28;20397;-70
2024/01/18 01:30:11;;;;;;;17.23;10.57;;;;;;;0.35;48.43;98933.09;5032882;28;20042;-70
2024/01/18 01:32:39;;;;;;;17.25;10.40;;;;;;;0.35;48.38;98938.50;5032792;28;20041;-70
2024/01/18 01:35:07;;;;;;;18.08;10.50;;;;;;;0.34;48.43;98934.94;5032947;28;20046;-70
2024/01/18 01:37:35;;;;;;;15.57;9.98;;;;;;;0.34;48.62;98936.75;5033070;28;20073;-70
2024/01/18 01:40:05;;;;;;;16.52;10.38;;;;;;;0.34;48.50;98945.69;5032534;28;20038;-71
2024/01/18 01:42:33;;;;;;;16.67;10.35;;;;;;;0.33;48.53;98946.66;5032171;28;20041;-70
2024/01/18 01:45:00;;;;;;;18.58;11.05;;;;;;;0.35;48.64;98958.16;5032505;28;20041;-70
2024/01/18 01:47:30;;;;;;;15.75;10.40;;;;;;;0.36;48.37;98959.00;5032510;28;20053;-70
2024/01/18 01:49:58;;;;;;;18.58;11.13;;;;;;;0.34;48.60;98959.16;5032979;28;20511;-70
2024/01/18 01:52:27;;;;;;;15.60;10.77;;;;;;;0.35;48.65;98960.00;5032321;28;20069;-70
2024/01/18 01:54:57;;;;;;;15.73;10.15;;;;;;;0.35;48.24;98958.16;5032394;28;20049;-70
2024/01/18 01:57:26;;;;;;;16.45;10.25;;;;;;;0.35;48.46;98955.47;5032489;28;20045;-70
2024/01/18 01:59:55;;;;;;;16.38;10.32;;;;;;;0.34;48.50;98961.84;5031533;28;20543;-70
2024/01/18 02:02:24;;;;;;;16.10;11.43;;;;;;;0.35;48.57;98966.22;5030747;28;20136;-70
2024/01/18 02:04:53;;;;;;;19.33;10.98;;;;;;;0.37;48.48;98963.41;5032277;28;20045;-70
2024/01/18 02:07:23;;;;;;;20.63;11.75;;;;;;;0.35;48.34;98974.28;5032859;28;20111;-70
2024/01/18 02:09:51;;;;;;;17.50;10.88;;;;;;;0.35;48.25;98974.28;5032189;28;20045;-70
2024/01/18 02:12:20;;;;;;;17.88;11.15;;;;;;;0.34;48.45;98975.28;5032246;28;20046;-70
2024/01/18 02:14:48;;;;;;;16.55;10.77;;;;;;;0.34;48.37;98974.44;5031873;28;20303;-70
2024/01/18 02:17:17;;;;;;;16.42;11.07;;;;;;;0.36;48.40;98975.16;5031186;28;20111;-70
2024/01/18 02:19:45;;;;;;;17.55;10.90;;;;;;;0.34;48.22;98971.75;5031935;28;20491;-70
2024/01/18 02:22:17;;;;;;;17.25;11.90;;;;;;;0.36;48.33;98969.78;5032506;28;20042;-70
2024/01/18 02:24:51;;;;;;;18.02;11.40;;;;;;;0.35;48.51;98974.28;5032111;28;20045;-71
2024/01/18 02:27:20;;;;;;;18.90;11.18;;;;;;;0.34;48.36;98966.38;5031655;28;20049;-70
2024/01/18 02:29:49;;;;;;;16.83;10.85;;;;;;;0.35;48.27;98968.09;5031822;28;20053;-70
2024/01/18 02:32:17;;;;;;;17.02;11.13;;;;;;;0.33;48.44;98980.78;5031177;28;20048;-70
2024/01/18 02:34:45;;;;;;;16.95;11.73;;;;;;;0.34;48.62;98971.75;5030129;28;20134;-70
2024/01/18 02:37:13;;;;;;;17.75;11.13;;;;;;;0.34;48.28;98971.75;5031712;28;20041;-70
2024/01/18 02:39:41;;;;;;;16.20;11.35;;;;;;;0.33;48.44;98968.19;5031316;28;20069;-70
2024/01/18 02:42:09;;;;;;;18.13;11.82;;;;;;;0.34;48.29;98974.44;5031649;28;20049;-70
2024/01/18 02:44:39;;;;;;;18.63;11.52;;;;;;;0.34;48.29;98972.59;5025448;28;20100;-70
2024/01/18 02:47:07;;;;;;;16.15;11.30;;;;;;;0.33;48.30;98975.41;5009898;28;20053;-70
2024/01/18 02:49:37;;;;;;;18.77;11.60;;;;;;;0.34;48.34;98969.91;5011839;28;20026;-70
2024/01/18 02:52:06;;;;;;;17.88;12.50;;;;;;;0.33;48.31;98968.19;5011767;28;20330;-70
2024/01/18 02:54:34;;;;;;;18.20;12.00;;;;;;;0.33;48.29;98968.19;5010828;28;20408;-70
2024/01/18 02:57:02;;;;;;;18.73;11.95;;;;;;;0.33;48.26;98973.56;5011483;28;20045;-70
2024/01/18 02:59:30;;;;;;;18.40;11.52;;;;;;;0.33;48.31;98978.97;5011371;28;20038;-70
2024/01/18 03:01:59;;;;;;;16.60;11.73;;;;;;;0.34;48.13;98972.59;5011212;28;20041;-70
2024/01/18 03:04:27;;;;;;;18.45;12.52;;;;;;;0.33;48.23;98972.72;5011874;28;20129;-70
2024/01/18 03:06:55;;;;;;;16.13;11.85;;;;;;;0.33;48.30;98970.88;5027709;28;20049;-70
2024/01/18 03:09:22;;;;;;;17.80;11.50;;;;;;;0.32;48.33;98974.53;5031028;28;20048;-70
2024/01/18 03:11:50;;;;;;;18.75;11.70;;;;;;;0.34;48.13;98987.88;5030622;28;20057;-70
2024/01/18 03:14:20;;;;;;;16.73;11.55;;;;;;;0.34;48.35;98999.50;5030791;28;20095;-70
2024/01/18 03:16:48;;;;;;;18.65;12.32;;;;;;;0.35;48.34;99003.06;5030562;28;20046;-70
2024/01/18 03:19:17;;;;;;;17.67;11.10;;;;;;;0.36;48.30;99004.75;5031490;28;20101;-70
2024/01/18 03:21:45;;;;;;;18.90;12.07;;;;;;;0.35;48.31;99008.44;5030336;28;20137;-70
2024/01/18 03:24:13;;;;;;;19.05;11.80;;;;;;;0.35;48.22;99008.44;5029091;28;20045;-70
2024/01/18 03:26:41;;;;;;;16.63;11.48;;;;;;;0.35;48.13;99017.34;5030404;28;20069;-70
2024/01/18 03:29:09;;;;;;;18.35;12.10;;;;;;;0.35;48.08;99009.28;5030046;28;20140;-71
2024/01/18 03:31:37;;;;;;;18.52;12.15;;;;;;;0.34;48.33;99002.22;5028826;28;20374;-72
2024/01/18 03:34:05;;;;;;;20.83;13.15;;;;;;;0.34;48.07;99004.03;5028683;28;20061;-72
2024/01/18 03:36:34;;;;;;;18.65;12.27;;;;;;;0.36;48.25;99004.75;5029079;28;20045;-72
2024/01/18 03:39:02;;;;;;;17.30;11.35;;;;;;;0.34;48.19;99004.91;5028555;28;20041;-72
2024/01/18 03:41:30;;;;;;;17.40;11.88;;;;;;;0.34;48.22;99004.91;5024518;28;20044;-71
2024/01/18 03:43:58;;;;;;;18.85;11.98;;;;;;;0.34;48.27;99002.22;5028230;28;20056;-71
2024/01/18 03:46:26;;;;;;;18.17;11.95;;;;;;;0.33;48.14;99007.69;5029349;28;20123;-71
2024/01/18 03:48:54;;;;;;;17.83;12.00;;;;;;;0.34;48.24;99006.72;5028648;28;20140;-71
2024/01/18 03:51:22;;;;;;;16.08;11.80;;;;;;;0.34;48.21;98995.97;5028209;28;20055;-71
2024/01/18 03:53:52;;;;;;;17.65;12.10;;;;;;;0.35;48.34;99001.19;5029075;28;20041;-71
2024/01/18 03:56:19;;;;;;;19.10;12.10;;;;;;;0.33;48.24;99000.47;5021354;28;20092;-71
2024/01/18 03:58:47;;;;;;;17.30;12.05;;;;;;;0.34;48.37;99001.34;5029108;28;20037;-71
2024/01/18 04:01:15;;;;;;;17.00;11.73;;;;;;;0.34;48.35;99006.72;5028361;28;20068;-71
2024/01/18 04:03:43;;;;;;;20.33;12.77;;;;;;;0.33;48.37;99003.19;5027908;28;20046;-72
2024/01/18 04:06:13;;;;;;;17.55;11.80;;;;;;;0.34;48.29;99004.91;5029099;28;20478;-71
2024/01/18 04:08:42;;;;;;;16.92;11.52;;;;;;;0.34;48.34;99010.28;5029435;28;20435;-71
2024/01/18 04:11:12;;;;;;;19.48;12.60;;;;;;;0.36;48.45;99004.75;5027797;28;20042;-71
2024/01/18 04:13:40;;;;;;;17.67;11.93;;;;;;;0.34;48.52;99002.22;5029172;28;20034;-71
2024/01/18 04:16:08;;;;;;;18.60;12.13;;;;;;;0.35;48.41;99009.28;5029838;28;20095;-71
2024/01/18 04:18:36;;;;;;;17.75;12.45;;;;;;;0.35;48.36;99011.97;5029069;28;20073;-71
2024/01/18 04:21:05;;;;;;;20.33;12.48;;;;;;;0.37;48.56;99009.16;5027338;28;20034;-71
2024/01/18 04:23:33;;;;;;;18.20;12.35;;;;;;;0.36;48.54;99015.53;5028572;28;20156;-72
2024/01/18 04:26:01;;;;;;;17.25;11.95;;;;;;;0.37;48.63;99011.84;5028453;28;20041;-71
2024/01/18 04:28:30;;;;;;;17.25;12.60;;;;;;;0.38;48.74;99018.97;5031175;28;20057;-71
2024/01/18 04:30:58;;;;;;;19.17;12.85;;;;;;;0.37;48.49;99025.31;5030881;28;20057;-74
2024/01/18 04:33:26;;;;;;;19.33;12.23;;;;;;;0.38;48.54;99028.88;5029446;28;20080;-74
2024/01/18 04:35:54;;;;;;;17.98;12.57;;;;;;;0.39;48.40;99035.97;5013659;28;20342;-74
2024/01/18 04:38:23;;;;;;;19.92;12.30;;;;;;;0.39;48.75;99041.34;5029617;28;20080;-74
2024/01/18 04:40:51;;;;;;;19.52;12.50;;;;;;;0.39;48.50;99052.97;5029964;28;20052;-74
2024/01/18 04:43:19;;;;;;;19.30;12.57;;;;;;;0.39;48.54;99062.88;5029300;28;20140;-74
2024/01/18 04:45:49;;;;;;;19.00;12.85;;;;;;;0.41;48.64;99071.69;5030356;28;20416;-74
2024/01/18 04:48:17;;;;;;;18.58;12.88;;;;;;;0.39;48.49;99069.13;5029369;28;20109;-74
2024/01/18 04:50:46;;;;;;;19.35;13.23;;;;;;;0.39;48.51;99077.19;5030964;28;20065;-74
2024/01/18 04:53:14;;;;;;;20.52;12.27;;;;;;;0.39;48.51;99079.03;5029594;28;20041;-74
2024/01/18 04:55:43;;;;;;;19.73;12.57;;;;;;;0.39;48.51;99074.50;5029994;28;20049;-75
2024/01/18 04:58:11;;;;;;;19.25;12.75;;;;;;;0.40;48.63;99073.53;5029871;28;20076;-75
2024/01/18 05:00:39;;;;;;;19.80;12.65;;;;;;;0.39;48.52;99074.50;5028474;28;20068;-75
2024/01/18 05:03:08;;;;;;;17.75;11.82;;;;;;;0.41;48.70;99066.31;5032900;28;20056;-74
2024/01/18 05:05:37;;;;;;;17.27;12.45;;;;;;;0.40;48.48;99072.66;5032565;28;20394;-75
2024/01/18 05:08:07;;;;;;;20.13;13.20;;;;;;;0.39;48.62;99076.34;5033343;28;20061;-75
2024/01/18 05:10:35;;;;;;;20.40;12.30;;;;;;;0.40;48.72;99080.75;5033445;28;20049;-74
2024/01/18 05:13:03;;;;;;;17.58;12.05;;;;;;;0.40;48.57;99086.13;5033837;28;20124;-74
2024/01/18 05:15:31;;;;;;;20.10;13.02;;;;;;;0.40;48.61;99088.81;5033047;28;20360;-74
2024/01/18 05:17:59;;;;;;;19.88;12.98;;;;;;;0.39;48.66;99087.97;5031636;28;20103;-74
2024/01/18 05:20:30;;;;;;;19.77;13.82;;;;;;;0.42;48.67;99101.19;5033118;28;20045;-75
2024/01/18 05:22:58;;;;;;;19.02;13.40;;;;;;;0.41;48.80;99098.63;5033156;28;20053;-75
2024/01/18 05:25:25;;;;;;;18.70;13.05;;;;;;;0.41;48.76;99095.94;5033992;28;20116;-74
2024/01/18 05:27:53;;;;;;;20.42;12.57;;;;;;;0.41;48.57;99096.78;5033101;28;20049;-74
2024/01/18 05:30:23;;;;;;;18.85;13.50;;;;;;;0.40;48.81;99102.28;5032896;28;20038;-74
2024/01/18 05:32:51;;;;;;;20.55;13.60;;;;;;;0.41;48.80;99104.84;5032827;28;20045;-75
2024/01/18 05:35:19;;;;;;;19.58;12.75;;;;;;;0.41;48.88;99107.53;5024968;28;20500;-75
2024/01/18 05:37:49;;;;;;;17.23;11.88;;;;;;;0.43;48.81;99115.50;5033076;28;20527;-75
2024/01/18 05:40:17;;;;;;;21.02;12.57;;;;;;;0.42;48.57;99113.78;5033465;28;20037;-74
2024/01/18 05:42:45;;;;;;;23.00;14.20;;;;;;;0.43;48.69;99120.91;5032569;28;20060;-75
2024/01/18 05:45:13;;;;;;;19.17;12.75;;;;;;;0.42;48.84;99128.09;5032748;28;20099;-74
2024/01/18 05:47:41;;;;;;;18.52;12.68;;;;;;;0.42;48.93;99121.88;5032509;28;20416;-75
2024/01/18 05:50:09;;;;;;;18.80;12.65;;;;;;;0.42;48.69;99127.25;5031053;28;20041;-74
2024/01/18 05:52:38;;;;;;;20.20;13.07;;;;;;;0.42;48.77;99125.41;5032007;28;20053;-75
2024/01/18 05:55:08;;;;;;;19.30;12.98;;;;;;;0.44;48.68;99130.66;5033460;28;20073;-75
2024/01/18 05:57:37;;;;;;;18.95;11.77;;;;;;;0.42;48.68;99138.00;5032603;28;20073;-74
2024/01/18 06:00:06;;;;;;;18.67;12.02;;;;;;;0.42;48.80;99130.81;5033319;28;20038;-75
2024/01/18 06:02:34;;;;;;;19.85;13.10;;;;;;;0.42;48.95;99121.88;5032795;28;20509;-75
2024/01/18 06:05:02;;;;;;;18.42;12.88;;;;;;;0.42;48.60;99120.03;5030745;28;20084;-74
2024/01/18 06:07:30;;;;;;;17.80;13.40;;;;;;;0.41;48.71;99123.69;5032594;28;20119;-75
2024/01/18 06:09:59;;;;;;;19.23;12.93;;;;;;;0.40;48.57;99146.19;5031256;28;20573;-74
2024/01/18 06:12:28;;;;;;;19.83;12.95;;;;;;;0.41;48.62;99147.06;5032281;28;20044;-74
2024/01/18 06:14:57;;;;;;;21.50;13.32;;;;;;;0.39;48.58;99152.53;5030874;28;20049;-74
2024/01/18 06:17:25;;;;;;;20.58;12.85;;;;;;;0.39;48.56;99157.91;5031622;28;20048;-73
2024/01/18 06:19:53;;;;;;;19.63;13.55;;;;;;;0.38;48.74;99161.59;5032315;28;20128;-74
2024/01/18 06:22:22;;;;;;;19.15;13.68;;;;;;;0.39;48.72;99170.50;5032172;28;20053;-73
2024/01/18 06:24:49;;;;;;;19.67;13.18;;;;;;;0.39;48.78;99168.69;5029997;28;20132;-73
2024/01/18 06:27:17;;;;;;;19.38;13.07;;;;;;;0.39;48.66;99173.22;5031416;28;20056;-74
2024/01/18 06:29:47;;;;;;;19.00;13.57;;;;;;;0.40;48.70;99175.78;5031742;28;20044;-74
2024/01/18 06:32:15;;;;;;;18.15;12.70;;;;;;;0.39;48.72;99183.97;5032274;28;20145;-74
2024/01/18 06:34:43;;;;;;;18.70;12.65;;;;;;;0.39;48.78;99190.22;5032112;28;20071;-74
2024/01/18 06:37:12;;;;;;;18.98;12.82;;;;;;;0.39;48.81;99186.66;5032056;28;20034;-74
2024/01/18 06:39:39;;;;;;;18.33;13.32;;;;;;;0.40;48.53;99196.47;5031441;28;20136;-74
2024/01/18 06:42:08;;;;;;;21.20;13.27;;;;;;;0.39;48.52;99202.81;5032639;28;20451;-74
2024/01/18 06:44:36;;;;;;;18.08;13.75;;;;;;;0.39;48.72;99203.66;5032241;28;20123;-73
2024/01/18 06:47:06;;;;;;;20.95;13.80;;;;;;;0.40;48.77;99208.09;5032565;28;20132;-74
2024/01/18 06:49:37;;;;;;;19.88;13.60;;;;;;;0.36;48.77;99210.13;5030875;28;20059;-74
2024/01/18 06:52:05;;;;;;;19.10;12.40;;;;;;;0.38;48.86;99211.84;5032211;28;20065;-74
2024/01/18 06:54:33;;;;;;;18.83;13.55;;;;;;;0.38;48.56;99214.53;5032356;28;20512;-73
2024/01/18 06:57:01;;;;;;;20.42;14.02;;;;;;;0.38;48.74;99211.84;5031978;28;20064;-73
2024/01/18 06:59:29;;;;;;;20.60;14.23;;;;;;;0.38;48.79;99203.78;5032312;28;20049;-73
2024/01/18 07:01:58;;;;;;;21.20;13.38;;;;;;;0.36;48.77;99215.50;5031657;28;20051;-74
2024/01/18 07:04:27;;;;;;;20.85;14.27;;;;;;;0.38;48.62;99214.53;5032046;28;20493;-74
2024/01/18 07:06:55;;;;;;;20.65;14.02;;;;;;;0.36;48.53;99214.66;5030987;28;20588;-74
2024/01/18 07:09:23;;;;;;;18.42;13.27;;;;;;;0.35;48.66;99219.16;5030080;28;20095;-73
2024/01/18 07:11:51;;;;;;;20.10;14.02;;;;;;;0.35;48.77;99221.03;5031379;28;20467;-73
2024/01/18 07:14:21;;;;;;;20.65;14.10;;;;;;;0.35;48.66;99221.03;5031214;28;20135;-74
2024/01/18 07:16:51;;;;;;;20.83;13.65;;;;;;;0.34;48.45;99232.75;5030514;28;20080;-73
2024/01/18 07:19:18;;;;;;;19.67;13.38;;;;;;;0.33;48.70;99233.72;5032278;28;20132;-73
2024/01/18 07:21:48;;;;;;;21.35;13.57;;;;;;;0.33;48.88;99236.41;5031697;28;20041;-74
2024/01/18 07:24:16;;;;;;;17.83;13.23;;;;;;;0.30;48.52;99240.16;5030511;28;20432;-73
2024/01/18 07:26:44;;;;;;;19.30;13.07;;;;;;;0.30;48.80;99248.25;5031019;28;20541;-73
2024/01/18 07:29:12;;;;;;;21.00;13.70;;;;;;;0.29;48.51;99248.34;5031619;28;20128;-74
2024/01/18 07:31:40;;;;;;;19.27;13.35;;;;;;;0.28;48.57;99252.00;5030963;28;20053;-73
2024/01/18 07:34:10;;;;;;;20.90;13.48;;;;;;;0.27;48.43;99250.31;5030635;28;20509;-74
2024/01/18 07:36:39;;;;;;;21.75;13.82;;;;;;;0.27;48.49;99250.31;5028960;28;20508;-73
2024/01/18 07:39:08;;;;;;;21.05;14.35;;;;;;;0.26;48.49;99253.97;5031198;28;20545;-74
2024/01/18 07:41:36;;;;;;;21.08;13.80;;;;;;;0.24;48.39;99256.75;5029463;28;20045;-74
2024/01/18 07:44:04;;;;;;;17.60;13.02;;;;;;;0.23;48.38;99263.09;5031298;28;20046;-74
2024/01/18 07:46:32;;;;;;;20.40;13.57;;;;;;;0.21;48.49;99265.03;5030622;28;20045;-74
2024/01/18 07:49:01;;;;;;;20.48;14.07;;;;;;;0.21;48.12;99273.09;5029762;28;20048;-74
2024/01/18 07:51:29;;;;;;;19.83;12.98;;;;;;;0.19;48.26;99276.91;5029979;28;20042;-74
2024/01/18 07:53:57;;;;;;;19.40;12.95;;;;;;;0.17;48.41;99278.81;5029705;28;20042;-74
2024/01/18 07:56:27;;;;;;;19.80;13.15;;;;;;;0.16;48.16;99287.84;5030324;28;20128;-74
2024/01/18 07:58:55;;;;;;;17.23;12.50;;;;;;;0.14;48.25;99289.78;5030342;28;20095;-74
2024/01/18 08:01:23;;;;;;;20.25;13.43;;;;;;;0.12;48.24;99299.78;5029107;28;20033;-74
2024/01/18 08:03:51;;;;;;;19.23;13.32;;;;;;;0.10;48.22;99302.59;5029823;28;20176;-74
2024/01/18 08:06:19;;;;;;;20.73;13.60;;;;;;;0.09;48.11;99298.19;5031293;28;20053;-74
2024/01/18 08:08:47;;;;;;;21.92;13.95;;;;;;;0.07;48.08;99308.19;5028617;28;20078;-73
2024/01/18 08:11:15;;;;;;;22.58;14.30;;;;;;;0.06;48.26;99305.59;5025879;28;20407;-73
2024/01/18 08:13:44;;;;;;;20.30;13.77;;;;;;;0.05;48.24;99312.81;5026768;28;20037;-71
2024/01/18 08:16:12;;;;;;;22.10;13.95;;;;;;;0.02;48.09;99313.03;5031091;28;20077;-71
2024/01/18 08:18:40;;;;;;;24.02;14.15;;;;;;;0.02;48.35;99314.84;5030573;28;20088;-71
2024/01/18 08:21:08;;;;;;;21.92;13.63;;;;;;;0.01;48.14;99318.50;5030006;28;20394;-71
2024/01/18 08:23:37;;;;;;;22.45;13.80;;;;;;;-0.02;48.27;99320.44;5030327;28;20064;-71
2024/01/18 08:26:06;;;;;;;21.55;14.85;;;;;;;-0.03;48.11;99321.41;5030295;28;20124;-71
2024/01/18 08:28:34;;;;;;;21.45;14.27;;;;;;;-0.03;47.99;99331.28;5030742;28;20045;-70
2024/01/18 08:31:04;;;;;;;22.60;14.90;;;;;;;-0.03;48.26;99331.28;5030619;28;20053;-70
2024/01/18 08:33:33;;;;;;;25.33;15.60;;;;;;;-0.05;48.19;99334.06;5030075;28;20069;-69
2024/01/18 08:36:01;;;;;;;22.35;14.25;;;;;;;-0.06;48.32;99343.09;5028213;28;20544;-70
2024/01/18 08:38:30;;;;;;;22.20;14.52;;;;;;;-0.06;48.35;99347.66;5030407;28;20050;-70
2024/01/18 08:40:58;;;;;;;23.00;15.20;;;;;;;-0.07;48.13;99354.84;5030368;28;20041;-71
2024/01/18 08:43:27;;;;;;;19.52;13.10;;;;;;;-0.07;48.12;99348.63;5030494;28;20041;-70
2024/01/18 08:45:55;;;;;;;20.08;14.45;;;;;;;-0.07;48.23;99360.25;5029938;28;20180;-71
2024/01/18 08:48:24;;;;;;;23.15;13.70;;;;;;;-0.06;48.27;99371.84;5030194;28;20100;-70
2024/01/18 08:50:52;;;;;;;19.98;14.45;;;;;;;-0.07;48.41;99360.25;5030184;28;20049;-71
2024/01/18 08:53:22;;;;;;;22.33;13.98;;;;;;;-0.05;48.37;99373.56;5030409;28;20041;-70
2024/01/18 08:55:50;;;;;;;21.45;14.43;;;;;;;-0.05;48.57;99376.25;5028965;28;20048;-70
2024/01/18 08:58:18;;;;;;;21.98;15.30;;;;;;;-0.04;48.37;99375.28;5030438;28;20297;-71
2024/01/18 09:00:46;;;;;;;24.38;15.73;;;;;;;-0.03;48.64;99377.00;5029909;28;20562;-70
2024/01/18 09:03:14;;;;;;;23.20;14.57;;;;;;;-0.02;48.42;99384.13;5030117;28;20451;-71
2024/01/18 09:05:47;;;;;;;20.65;15.02;;;;;;;0.01;48.71;99389.28;5029970;28;20050;-71
2024/01/18 09:08:15;;;;;;;23.58;14.82;;;;;;;0.01;48.84;99391.13;5029654;28;20149;-69
2024/01/18 09:10:43;;;;;;;19.98;14.15;;;;;;;0.03;48.76;99395.41;5029917;28;20638;-69
2024/01/18 09:13:11;;;;;;;22.63;14.18;;;;;;;0.06;49.09;99405.13;5030477;28;20044;-71
2024/01/18 09:15:39;;;;;;;25.35;15.93;;;;;;;0.08;48.97;99409.44;5030043;28;20060;-71
2024/01/18 09:18:09;;;;;;;21.45;14.20;;;;;;;0.11;49.20;99417.28;5028109;28;20402;-70
2024/01/18 09:20:37;;;;;;;21.58;14.40;;;;;;;0.16;49.16;99423.22;5028896;28;20055;-71
2024/01/18 09:23:06;;;;;;;23.35;15.75;;;;;;;0.21;49.36;99430.97;5029854;28;20047;-70
2024/01/18 09:25:40;;;;;;;22.02;14.93;;;;;;;0.24;49.48;99428.94;5030013;28;20466;-71
2024/01/18 09:28:09;;;;;;;23.38;16.02;;;;;;;0.28;49.45;99433.13;5030951;28;20172;-70
2024/01/18 09:30:37;;;;;;;21.10;15.40;;;;;;;0.33;49.27;99440.91;5029741;28;20075;-71
2024/01/18 09:33:11;;;;;;;24.58;15.63;;;;;;;0.36;49.49;99449.63;5029747;28;20052;-71
2024/01/18 09:35:40;;;;;;;22.35;15.13;;;;;;;0.42;49.35;99444.81;5030090;28;20512;-71
2024/01/18 09:38:10;;;;;;;24.30;15.40;;;;;;;0.47;49.47;99451.59;5029952;28;20412;-71
2024/01/18 09:40:40;;;;;;;23.38;15.30;;;;;;;0.51;49.41;99454.97;5029551;28;20056;-70
2024/01/18 09:43:10;;;;;;;22.33;15.15;;;;;;;0.56;49.39;99456.34;5030362;28;20512;-71
2024/01/18 09:45:43;;;;;;;23.33;15.07;;;;;;;0.62;49.42;99471.22;5030018;28;20041;-71
2024/01/18 09:48:12;;;;;;;23.98;15.75;;;;;;;0.66;49.74;99472.75;5032019;28;20045;-71
2024/01/18 09:50:43;;;;;;;21.13;15.15;;;;;;;0.72;49.43;99492.03;5033158;28;20124;-71
2024/01/18 09:53:13;;;;;;;19.40;13.95;;;;;;;0.76;49.53;99500.78;5031684;28;20413;-71
2024/01/18 09:55:41;;;;;;;25.85;14.60;;;;;;;0.80;49.67;99504.09;5033196;28;20493;-71
2024/01/18 09:58:13;;;;;;;20.17;14.38;;;;;;;0.88;49.28;99509.84;5033334;28;20060;-71
2024/01/18 10:00:45;;;;;;;20.92;14.35;;;;;;;0.91;49.42;99506.97;5032768;28;20038;-72
2024/01/18 10:03:14;;;;;;;19.92;13.52;;;;;;;0.97;49.52;99514.59;5032366;28;20098;-72
2024/01/18 10:05:44;;;;;;;21.30;13.85;;;;;;;1.02;49.49;99513.31;5030965;28;20033;-72
2024/01/18 10:08:14;;;;;;;18.80;13.07;;;;;;;1.06;49.31;99520.22;5031321;28;20508;-72
2024/01/18 10:10:43;;;;;;;21.38;14.13;;;;;;;1.11;49.47;99527.97;5031594;28;20496;-72
2024/01/18 10:13:13;;;;;;;21.15;13.80;;;;;;;1.15;49.08;99534.88;5030633;28;20459;-72
2024/01/18 10:15:41;;;;;;;18.90;13.02;;;;;;;1.21;49.21;99541.66;5032007;28;20049;-73
2024/01/18 10:18:10;;;;;;;19.52;13.38;;;;;;;1.24;49.31;99534.25;5030046;28;20525;-73
2024/01/18 10:20:38;;;;;;;19.85;13.93;;;;;;;1.28;49.26;99541.13;5027398;28;20390;-73
2024/01/18 10:23:10;;;;;;;20.58;13.70;;;;;;;1.32;49.36;99541.78;5029643;28;20436;-73
2024/01/18 10:25:41;;;;;;;19.63;13.55;;;;;;;1.37;49.12;99555.78;5025699;28;20044;-74
2024/01/18 10:28:09;;;;;;;19.65;13.68;;;;;;;1.37;49.14;99548.56;5030370;28;20049;-74
2024/01/18 10:30:37;;;;;;;19.55;13.68;;;;;;;1.39;48.96;99549.34;5024839;28;20041;-75
2024/01/18 10:33:05;;;;;;;20.60;13.45;;;;;;;1.37;49.00;99559.34;5028553;28;20105;-75
2024/01/18 10:35:33;;;;;;;20.17;12.75;;;;;;;1.35;49.04;99563.13;5029720;28;20398;-75
2024/01/18 10:38:03;;;;;;;21.63;13.73;;;;;;;1.33;49.06;99565.94;5029702;28;20124;-74
2024/01/18 10:40:33;;;;;;;23.05;14.20;;;;;;;1.33;49.19;99567.78;5029752;28;20485;-74
2024/01/18 10:43:03;;;;;;;19.95;13.25;;;;;;;1.31;49.09;99569.72;5030252;28;20427;-74
2024/01/18 10:45:32;;;;;;;19.25;12.40;;;;;;;1.29;49.33;99572.50;5029939;28;20049;-74
2024/01/18 10:48:00;;;;;;;21.23;13.27;;;;;;;1.27;49.17;99569.06;5030812;28;20038;-73
2024/01/18 10:50:31;;;;;;;19.30;13.13;;;;;;;1.27;49.31;99573.56;5029605;28;20471;-74
2024/01/18 10:52:59;;;;;;;21.05;13.32;;;;;;;1.25;49.46;99579.09;5030480;28;20284;-74
2024/01/18 10:55:27;;;;;;;19.48;12.77;;;;;;;1.24;49.36;99571.97;5030829;28;20042;-73
2024/01/18 10:57:55;;;;;;;19.15;12.48;;;;;;;1.25;49.40;99575.53;5024382;28;20049;-75
2024/01/18 11:00:24;;;;;;;18.65;12.85;;;;;;;1.25;49.64;99587.19;5028626;28;20412;-75
2024/01/18 11:02:53;;;;;;;21.40;13.48;;;;;;;1.26;49.60;99593.44;5030543;28;20041;-74
2024/01/18 11:05:21;;;;;;;18.13;12.77;;;;;;;1.26;49.48;99590.75;5027535;28;20049;-73
2024/01/18 11:07:50;;;;;;;19.08;11.70;;;;;;;1.28;49.68;99600.44;5029932;28;20048;-73
2024/01/18 11:10:18;;;;;;;18.95;11.93;;;;;;;1.28;49.83;99604.94;5027601;28;20049;-74
2024/01/18 11:12:49;;;;;;;18.70;12.60;;;;;;;1.29;49.71;99615.63;5029826;28;20137;-74
2024/01/18 11:15:17;;;;;;;18.45;12.23;;;;;;;1.31;49.89;99618.22;5030409;28;20508;-74
2024/01/18 11:17:49;;;;;;;19.77;11.85;;;;;;;1.33;49.76;99617.16;5026224;28;20501;-73
2024/01/18 11:20:17;;;;;;;19.35;12.35;;;;;;;1.34;49.76;99620.72;5028299;28;20136;-74
2024/01/18 11:22:46;;;;;;;24.27;13.00;;;;;;;1.36;49.70;99621.47;5029825;28;20457;-73
2024/01/18 11:25:19;;;;;;;18.25;12.65;;;;;;;1.38;49.52;99625.78;5030585;28;20045;-74
2024/01/18 11:27:48;;;;;;;19.23;12.70;;;;;;;1.37;49.84;99624.06;5027257;28;20041;-73
2024/01/18 11:30:34;;;;;;;17.85;12.15;;;;;;;1.41;49.44;99633.66;5030875;28;20043;-73
2024/01/18 11:33:07;;;;;;;19.67;13.32;;;;;;;1.40;49.79;99629.25;5027095;28;20087;-73